createdAt,value
2018-08-11T00:00:02.661Z,2.50
2018-08-11T00:02:29.963Z,2.60
2018-08-11T00:04:57.128Z,2.50
2018-08-11T00:07:24.301Z,2.40
2018-08-11T00:09:51.540Z,2.40
2018-08-11T00:12:18.722Z,2.30
2018-08-11T00:14:46.015Z,2.50
2018-08-11T00:17:13.348Z,2.70
2018-08-11T00:19:40.604Z,2.27
2018-08-11T00:22:07.860Z,2.30
2018-08-11T00:24:35.218Z,2.40
2018-08-11T00:27:02.462Z,2.23
2018-08-11T00:29:29.665Z,2.50
2018-08-11T00:31:56.945Z,2.53
2018-08-11T00:34:24.174Z,2.43
2018-08-11T00:36:51.483Z,2.27
2018-08-11T00:39:18.684Z,2.10
2018-08-11T00:41:45.933Z,2.50
2018-08-11T00:44:13.192Z,2.50
2018-08-11T00:46:40.538Z,2.73
2018-08-11T00:49:07.800Z,2.30
2018-08-11T00:51:35.070Z,2.20
2018-08-11T00:54:02.384Z,2.30
2018-08-11T00:56:29.592Z,2.17
2018-08-11T00:58:56.747Z,2.10
2018-08-11T01:01:23.956Z,2.50
2018-08-11T01:03:51.224Z,2.23
2018-08-11T01:06:18.379Z,2.60
2018-08-11T01:08:45.567Z,2.20
2018-08-11T01:11:12.721Z,2.40
2018-08-11T01:13:39.872Z,2.40
2018-08-11T01:16:07.121Z,2.53
2018-08-11T01:18:34.268Z,3.00
2018-08-11T01:21:01.422Z,2.87
2018-08-11T01:23:28.652Z,2.83
2018-08-11T01:25:55.845Z,2.73
2018-08-11T01:28:23.002Z,2.90
2018-08-11T01:30:50.216Z,2.80
2018-08-11T01:33:17.464Z,2.63
2018-08-11T01:35:44.830Z,2.80
2018-08-11T01:38:12.004Z,2.87
2018-08-11T01:40:39.162Z,3.20
2018-08-11T01:43:06.338Z,3.10
2018-08-11T01:45:33.542Z,3.13
2018-08-11T01:48:00.750Z,3.03
2018-08-11T01:50:28.018Z,3.40
2018-08-11T01:52:55.222Z,3.17
2018-08-11T01:55:22.380Z,3.30
2018-08-11T01:57:49.568Z,3.60
2018-08-11T02:00:17.452Z,2.80
2018-08-11T02:02:44.816Z,3.40
2018-08-11T02:05:12.412Z,3.10
2018-08-11T02:07:40.610Z,3.50
2018-08-11T02:10:11.370Z,3.20
2018-08-11T02:12:38.609Z,3.80
2018-08-11T02:15:08.057Z,3.77
2018-08-11T02:17:35.260Z,3.83
2018-08-11T02:20:02.436Z,3.70
2018-08-11T02:22:29.615Z,4.40
2018-08-11T02:24:56.872Z,4.27
2018-08-11T02:27:24.036Z,3.90
2018-08-11T02:29:51.580Z,4.33
2018-08-11T02:32:19.796Z,4.40
2018-08-11T02:34:47.029Z,3.90
2018-08-11T02:37:14.342Z,4.73
2018-08-11T02:39:41.507Z,4.30
2018-08-11T02:42:08.693Z,3.90
2018-08-11T02:44:35.881Z,3.63
2018-08-11T02:47:03.096Z,3.73
2018-08-11T02:49:30.348Z,3.40
2018-08-11T02:51:57.526Z,3.53
2018-08-11T02:54:24.680Z,3.97
2018-08-11T02:56:51.859Z,3.97
2018-08-11T02:59:23.419Z,3.80
2018-08-11T03:01:51.258Z,3.77
2018-08-11T03:04:18.547Z,3.80
2018-08-11T03:06:45.916Z,4.00
2018-08-11T03:09:13.082Z,3.87
2018-08-11T03:11:40.283Z,3.90
2018-08-11T03:14:07.694Z,3.80
2018-08-11T03:16:34.832Z,4.23
2018-08-11T03:19:02.284Z,4.03
2018-08-11T03:21:29.489Z,4.10
2018-08-11T03:23:56.658Z,4.37
2018-08-11T03:26:23.897Z,4.13
2018-08-11T03:28:51.101Z,4.10
2018-08-11T03:31:18.326Z,4.17
2018-08-11T03:33:45.464Z,4.47
2018-08-11T03:36:12.926Z,4.43
2018-08-11T03:38:40.134Z,4.47
2018-08-11T03:41:11.584Z,4.67
2018-08-11T03:43:38.900Z,4.80
2018-08-11T03:46:06.308Z,4.17
2018-08-11T03:48:33.419Z,4.50
2018-08-11T03:51:00.750Z,4.93
2018-08-11T03:53:27.872Z,4.50
2018-08-11T03:55:55.035Z,4.13
2018-08-11T03:58:22.274Z,3.87
2018-08-11T04:00:54.521Z,4.33
2018-08-11T04:03:21.773Z,3.90
2018-08-11T04:05:48.948Z,4.10
2018-08-11T04:08:16.098Z,3.83
2018-08-11T04:10:43.268Z,3.13
2018-08-11T04:13:10.532Z,3.40
2018-08-11T04:15:37.775Z,3.47
2018-08-11T04:18:05.046Z,3.97
2018-08-11T04:20:35.891Z,3.40
2018-08-11T04:23:03.149Z,3.20
2018-08-11T04:25:30.903Z,3.10
2018-08-11T04:27:58.245Z,2.70
2018-08-11T04:30:25.395Z,3.03
2018-08-11T04:32:52.594Z,3.10
2018-08-11T04:35:19.882Z,3.13
2018-08-11T04:37:47.096Z,2.87
2018-08-11T04:40:14.324Z,3.20
2018-08-11T04:42:41.515Z,2.97
2018-08-11T04:45:08.713Z,3.03
2018-08-11T04:47:35.891Z,2.50
2018-08-11T04:50:03.116Z,2.63
2018-08-11T04:52:30.368Z,2.40
2018-08-11T04:54:57.559Z,2.37
2018-08-11T04:57:24.707Z,2.50
2018-08-11T04:59:51.869Z,2.50
2018-08-11T05:02:19.239Z,2.70
2018-08-11T05:04:46.680Z,2.40
2018-08-11T05:07:13.854Z,2.13
2018-08-11T05:09:41.576Z,2.20
2018-08-11T05:12:08.854Z,2.37
2018-08-11T05:14:36.335Z,2.13
2018-08-11T05:17:03.624Z,2.30
2018-08-11T05:19:31.626Z,2.47
2018-08-11T05:21:59.498Z,2.20
2018-08-11T05:24:26.876Z,2.10
2018-08-11T05:26:54.492Z,2.10
2018-08-11T05:29:22.256Z,2.30
2018-08-11T05:31:49.468Z,2.27
2018-08-11T05:34:16.828Z,2.37
2018-08-11T05:36:44.195Z,2.23
2018-08-11T05:39:13.444Z,2.50
2018-08-11T05:41:41.256Z,2.40
2018-08-11T05:44:08.585Z,2.33
2018-08-11T05:46:36.855Z,2.23
2018-08-11T05:49:04.369Z,2.43
2018-08-11T05:51:31.894Z,2.10
2018-08-11T05:53:59.611Z,2.20
2018-08-11T05:56:26.851Z,2.23
2018-08-11T05:58:54.152Z,2.30
2018-08-11T06:01:21.695Z,2.23
2018-08-11T06:03:48.917Z,2.40
2018-08-11T06:06:16.514Z,2.63
2018-08-11T06:08:44.091Z,2.50
2018-08-11T06:11:12.815Z,2.60
2018-08-11T06:13:40.664Z,2.73
2018-08-11T06:16:08.647Z,2.50
2018-08-11T06:18:36.353Z,2.57
2018-08-11T06:21:03.637Z,2.37
2018-08-11T06:23:32.851Z,2.40
2018-08-11T06:26:00.615Z,2.40
2018-08-11T06:28:43.478Z,2.60
2018-08-11T06:31:11.011Z,2.20
2018-08-11T06:33:38.173Z,2.53
2018-08-11T06:36:05.555Z,2.40
2018-08-11T06:38:32.913Z,2.20
2018-08-11T06:41:00.480Z,2.43
2018-08-11T06:43:27.692Z,2.33
2018-08-11T06:45:55.430Z,2.50
2018-08-11T06:48:22.611Z,2.27
2018-08-11T06:50:49.877Z,2.37
2018-08-11T06:53:17.202Z,2.10
2018-08-11T06:55:45.082Z,2.30
2018-08-11T06:58:12.411Z,2.60
2018-08-11T07:00:39.738Z,2.37
2018-08-11T07:03:06.890Z,2.27
2018-08-11T07:05:34.232Z,2.47
2018-08-11T07:08:01.492Z,2.30
2018-08-11T07:10:28.725Z,2.70
2018-08-11T07:12:56.185Z,2.50
2018-08-11T07:15:23.457Z,2.60
2018-08-11T07:17:51.612Z,2.47
2018-08-11T07:20:18.979Z,2.60
2018-08-11T07:22:46.223Z,1.90
2018-08-11T07:25:13.424Z,2.30
2018-08-11T07:27:40.748Z,2.50
2018-08-11T07:30:07.956Z,2.30
2018-08-11T07:32:35.210Z,2.13
2018-08-11T07:35:05.648Z,2.60
2018-08-11T07:37:32.869Z,2.20
2018-08-11T07:40:00.062Z,1.90
2018-08-11T07:42:27.329Z,2.33
2018-08-11T07:44:54.594Z,2.30
2018-08-11T07:47:21.749Z,2.00
2018-08-11T07:49:49.019Z,2.10
2018-08-11T07:52:16.156Z,2.07
2018-08-11T07:54:43.405Z,2.17
2018-08-11T07:57:10.830Z,2.50
2018-08-11T07:59:38.013Z,2.23
2018-08-11T08:02:05.290Z,2.07
2018-08-11T08:04:32.532Z,1.93
2018-08-11T08:06:59.725Z,2.13
2018-08-11T08:09:26.979Z,1.90
2018-08-11T08:11:54.197Z,2.17
2018-08-11T08:14:21.570Z,2.00
2018-08-11T08:16:48.706Z,1.70
2018-08-11T08:19:15.897Z,2.17
2018-08-11T08:21:43.059Z,1.57
2018-08-11T08:24:10.260Z,1.60
2018-08-11T08:26:37.495Z,1.50
2018-08-11T08:29:04.799Z,1.40
2018-08-11T08:31:31.955Z,1.60
2018-08-11T08:33:59.266Z,1.57
2018-08-11T08:36:26.420Z,1.50
2018-08-11T08:38:53.613Z,1.50
2018-08-11T08:41:20.888Z,1.60
2018-08-11T08:43:48.144Z,1.50
2018-08-11T08:46:15.395Z,1.67
2018-08-11T08:48:42.573Z,1.33
2018-08-11T08:51:09.797Z,1.50
2018-08-11T08:53:37.634Z,1.43
2018-08-11T08:56:04.809Z,1.43
2018-08-11T08:58:35.100Z,1.33
2018-08-11T09:01:02.277Z,1.57
2018-08-11T09:03:30.039Z,1.63
2018-08-11T09:05:57.232Z,1.77
2018-08-11T09:08:24.799Z,1.50
2018-08-11T09:10:52.808Z,1.70
2018-08-11T09:13:20.811Z,1.53
2018-08-11T09:15:48.393Z,1.47
2018-08-11T09:18:16.276Z,1.50
2018-08-11T09:20:43.570Z,1.77
2018-08-11T09:23:10.817Z,1.50
2018-08-11T09:25:38.052Z,1.70
2018-08-11T09:28:05.228Z,1.63
2018-08-11T09:30:32.464Z,1.60
2018-08-11T09:32:59.992Z,1.70
2018-08-11T09:35:27.347Z,1.70
2018-08-11T09:37:54.497Z,1.60
2018-08-11T09:40:21.696Z,1.70
2018-08-11T09:42:48.855Z,1.70
2018-08-11T09:45:15.995Z,1.60
2018-08-11T09:47:43.245Z,1.50
2018-08-11T09:50:10.417Z,1.77
2018-08-11T09:52:37.549Z,2.10
2018-08-11T09:55:04.754Z,1.50
2018-08-11T09:57:32.015Z,1.40
2018-08-11T09:59:59.328Z,1.70
2018-08-11T10:02:26.802Z,1.47
2018-08-11T10:04:54.413Z,1.60
2018-08-11T10:07:22.712Z,1.30
2018-08-11T10:09:49.875Z,1.80
2018-08-11T10:12:17.116Z,1.50
2018-08-11T10:14:44.308Z,1.93
2018-08-11T10:17:11.519Z,2.10
2018-08-11T10:19:38.684Z,1.80
2018-08-11T10:22:06.108Z,2.47
2018-08-11T10:24:34.860Z,1.77
2018-08-11T10:27:03.149Z,1.50
2018-08-11T10:29:30.338Z,1.80
2018-08-11T10:31:57.874Z,1.90
2018-08-11T10:34:25.041Z,1.87
2018-08-11T10:36:52.298Z,1.70
2018-08-11T10:39:19.531Z,2.27
2018-08-11T10:41:46.673Z,1.80
2018-08-11T10:44:13.851Z,1.70
2018-08-11T10:46:41.089Z,1.83
2018-08-11T10:49:08.923Z,1.67
2018-08-11T10:51:36.224Z,1.70
2018-08-11T10:54:03.648Z,1.63
2018-08-11T10:56:31.461Z,1.60
2018-08-11T10:58:58.712Z,1.57
2018-08-11T11:01:26.006Z,1.40
2018-08-11T11:03:54.160Z,1.20
2018-08-11T11:06:21.328Z,1.27
2018-08-11T11:08:48.459Z,1.33
2018-08-11T11:11:15.619Z,1.37
2018-08-11T11:13:43.044Z,1.33
2018-08-11T11:16:10.189Z,1.33
2018-08-11T11:18:39.369Z,1.50
2018-08-11T11:21:06.567Z,1.23
2018-08-11T11:23:33.774Z,1.27
2018-08-11T11:26:00.981Z,1.40
2018-08-11T11:28:28.166Z,1.10
2018-08-11T11:30:55.393Z,1.20
2018-08-11T11:33:22.543Z,1.10
2018-08-11T11:35:49.736Z,1.20
2018-08-11T11:38:16.978Z,1.03
2018-08-11T11:40:44.226Z,1.10
2018-08-11T11:43:11.429Z,1.20
2018-08-11T11:45:38.599Z,1.30
2018-08-11T11:48:05.745Z,1.17
2018-08-11T11:50:32.985Z,1.10
2018-08-11T11:53:06.233Z,1.10
2018-08-11T11:55:33.419Z,1.10
2018-08-11T11:58:00.612Z,1.20
2018-08-11T12:00:27.769Z,1.20
2018-08-11T12:02:55.041Z,1.30
2018-08-11T12:05:22.236Z,1.30
2018-08-11T12:07:50.447Z,1.17
2018-08-11T12:10:17.638Z,1.20
2018-08-11T12:12:44.779Z,1.00
2018-08-11T12:15:12.010Z,0.97
2018-08-11T12:17:39.523Z,1.20
2018-08-11T12:20:07.789Z,1.10
2018-08-11T12:22:34.949Z,1.00
2018-08-11T12:25:02.248Z,1.00
2018-08-11T12:27:33.931Z,1.00
2018-08-11T12:30:01.151Z,1.30
2018-08-11T12:32:28.338Z,1.17
2018-08-11T12:34:55.476Z,1.10
2018-08-11T12:37:22.681Z,1.10
2018-08-11T12:39:49.966Z,1.17
2018-08-11T12:42:17.125Z,1.10
2018-08-11T12:44:45.347Z,0.80
2018-08-11T12:47:12.599Z,1.10
2018-08-11T12:49:39.832Z,1.20
2018-08-11T12:52:07.144Z,1.20
2018-08-11T12:54:34.335Z,1.27
2018-08-11T12:57:01.596Z,1.00
2018-08-11T12:59:28.836Z,1.00
2018-08-11T13:01:56.380Z,1.00
2018-08-11T13:04:23.684Z,1.20
2018-08-11T13:06:50.829Z,1.13
2018-08-11T13:09:18.122Z,1.30
2018-08-11T13:11:45.282Z,1.30
2018-08-11T13:14:12.440Z,0.90
2018-08-11T13:16:39.752Z,1.33
2018-08-11T13:19:09.040Z,1.00
2018-08-11T13:21:36.278Z,1.00
2018-08-11T13:24:03.525Z,1.07
2018-08-11T13:26:30.707Z,1.17
2018-08-11T13:28:58.029Z,1.20
2018-08-11T13:31:25.249Z,1.40
2018-08-11T13:33:52.376Z,1.10
2018-08-11T13:36:25.854Z,1.20
2018-08-11T13:38:52.974Z,1.13
2018-08-11T13:41:20.187Z,1.30
2018-08-11T13:43:47.349Z,1.20
2018-08-11T13:46:14.598Z,1.10
2018-08-11T13:48:41.758Z,1.47
2018-08-11T13:51:08.942Z,1.00
2018-08-11T13:53:36.181Z,1.30
2018-08-11T13:56:04.345Z,1.50
2018-08-11T13:58:31.542Z,1.60
2018-08-11T14:01:02.177Z,1.37
2018-08-11T14:03:29.318Z,1.10
2018-08-11T14:05:58.724Z,1.30
2018-08-11T14:08:25.888Z,1.30
2018-08-11T14:10:54.263Z,1.27
2018-08-11T14:13:21.515Z,1.27
2018-08-11T14:15:50.676Z,1.33
2018-08-11T14:18:17.868Z,1.60
2018-08-11T14:20:45.091Z,1.60
2018-08-11T14:23:12.248Z,1.40
2018-08-11T14:25:39.404Z,1.30
2018-08-11T14:28:06.709Z,1.30
2018-08-11T14:30:33.939Z,1.23
2018-08-11T14:33:01.067Z,1.20
2018-08-11T14:35:28.243Z,1.30
2018-08-11T14:37:55.378Z,1.23
2018-08-11T14:40:23.546Z,1.30
2018-08-11T14:42:51.187Z,1.50
2018-08-11T14:45:18.660Z,1.40
2018-08-11T14:47:46.888Z,1.40
2018-08-11T14:50:14.435Z,1.40
2018-08-11T14:52:41.585Z,1.30
2018-08-11T14:55:08.833Z,1.70
2018-08-11T14:57:36.041Z,1.23
2018-08-11T15:00:05.541Z,1.47
2018-08-11T15:02:32.777Z,1.40
2018-08-11T15:04:59.968Z,1.33
2018-08-11T15:07:27.185Z,1.40
2018-08-11T15:09:54.491Z,1.60
2018-08-11T15:12:21.635Z,1.40
2018-08-11T15:14:48.769Z,1.50
2018-08-11T15:17:15.911Z,1.20
2018-08-11T15:19:43.160Z,1.47
2018-08-11T15:22:11.312Z,1.47
2018-08-11T15:24:38.459Z,1.63
2018-08-11T15:27:05.986Z,1.60
2018-08-11T15:29:33.262Z,1.40
2018-08-11T15:32:00.499Z,1.60
2018-08-11T15:34:27.704Z,1.40
2018-08-11T15:36:54.885Z,1.40
2018-08-11T15:39:23.103Z,1.77
2018-08-11T15:41:50.329Z,1.60
2018-08-11T15:44:17.842Z,1.30
2018-08-11T15:46:44.997Z,1.40
2018-08-11T15:49:12.208Z,1.27
2018-08-11T15:51:39.399Z,1.70
2018-08-11T15:54:06.639Z,1.47
2018-08-11T15:56:33.924Z,1.57
2018-08-11T15:59:01.244Z,1.30
2018-08-11T16:01:28.385Z,1.47
2018-08-11T16:03:55.657Z,1.50
2018-08-11T16:06:22.845Z,1.30
2018-08-11T16:08:50.067Z,1.50
2018-08-11T16:11:18.903Z,1.67
2018-08-11T16:13:46.260Z,1.20
2018-08-11T16:16:13.441Z,1.30
2018-08-11T16:18:40.696Z,1.30
2018-08-11T16:21:08.216Z,1.50
2018-08-11T16:23:36.353Z,1.40
2018-08-11T16:26:04.167Z,1.53
2018-08-11T16:28:31.381Z,1.30
2018-08-11T16:30:58.578Z,1.40
2018-08-11T16:33:25.927Z,1.43
2018-08-11T16:35:53.909Z,1.47
2018-08-11T16:38:21.813Z,1.50
2018-08-11T16:40:49.112Z,1.27
2018-08-11T16:43:16.325Z,1.40
2018-08-11T16:45:43.644Z,1.43
2018-08-11T16:48:11.527Z,1.60
2018-08-11T16:50:39.361Z,1.50
2018-08-11T16:53:06.519Z,1.17
2018-08-11T16:55:33.768Z,1.20
2018-08-11T16:58:00.985Z,1.30
2018-08-11T17:00:28.714Z,1.40
2018-08-11T17:02:56.598Z,1.30
2018-08-11T17:05:25.261Z,1.60
2018-08-11T17:07:52.425Z,1.40
2018-08-11T17:10:19.736Z,1.53
2018-08-11T17:12:46.883Z,1.50
2018-08-11T17:15:14.500Z,1.20
2018-08-11T17:17:42.471Z,1.20
2018-08-11T17:20:09.717Z,1.70
2018-08-11T17:22:36.987Z,1.40
2018-08-11T17:25:04.383Z,1.60
2018-08-11T17:27:31.965Z,1.67
2018-08-11T17:29:59.703Z,1.50
2018-08-11T17:32:27.451Z,1.40
2018-08-11T17:34:55.078Z,1.50
2018-08-11T17:37:23.018Z,1.33
2018-08-11T17:39:50.252Z,1.70
2018-08-11T17:42:17.705Z,1.47
2018-08-11T17:44:44.899Z,1.50
2018-08-11T17:47:13.442Z,1.50
2018-08-11T17:49:40.576Z,1.53
2018-08-11T17:52:25.495Z,1.60
2018-08-11T17:54:52.774Z,1.67
2018-08-11T17:57:20.038Z,1.77
2018-08-11T17:59:48.407Z,1.87
2018-08-11T18:02:16.601Z,1.40
2018-08-11T18:04:44.085Z,1.40
2018-08-11T18:07:11.334Z,1.30
2018-08-11T18:09:38.579Z,1.50
2018-08-11T18:12:05.820Z,1.30
2018-08-11T18:14:33.013Z,1.53
2018-08-11T18:17:01.324Z,1.37
2018-08-11T18:19:29.372Z,1.50
2018-08-11T18:21:56.637Z,1.10
2018-08-11T18:24:23.794Z,1.30
2018-08-11T18:26:51.457Z,1.30
2018-08-11T18:29:18.683Z,1.37
2018-08-11T18:31:46.125Z,1.20
2018-08-11T18:34:13.409Z,1.37
2018-08-11T18:36:41.223Z,1.20
2018-08-11T18:39:09.845Z,1.27
2018-08-11T18:41:36.992Z,1.20
2018-08-11T18:44:04.190Z,1.20
2018-08-11T18:46:31.434Z,1.47
2018-08-11T18:48:58.641Z,1.40
2018-08-11T18:51:25.878Z,1.53
2018-08-11T18:53:53.161Z,1.10
2018-08-11T18:56:20.525Z,1.50
2018-08-11T18:58:47.880Z,1.37
2018-08-11T19:01:15.090Z,1.60
2018-08-11T19:03:42.313Z,1.30
2018-08-11T19:06:09.556Z,1.40
2018-08-11T19:08:36.748Z,1.30
2018-08-11T19:11:04.796Z,1.20
2018-08-11T19:13:33.060Z,1.30
2018-08-11T19:16:00.905Z,1.10
2018-08-11T19:18:28.180Z,1.10
2018-08-11T19:20:55.458Z,1.00
2018-08-11T19:23:23.547Z,1.03
2018-08-11T19:25:50.904Z,1.20
2018-08-11T19:28:18.551Z,1.20
2018-08-11T19:30:45.713Z,0.97
2018-08-11T19:33:13.175Z,1.20
2018-08-11T19:35:40.456Z,1.00
2018-08-11T19:38:07.804Z,1.03
2018-08-11T19:40:35.020Z,0.93
2018-08-11T19:43:02.259Z,0.90
2018-08-11T19:45:29.652Z,1.20
2018-08-11T19:47:56.981Z,1.00
2018-08-11T19:50:25.275Z,1.00
2018-08-11T19:52:52.757Z,1.13
2018-08-11T19:55:19.956Z,0.90
2018-08-11T19:57:47.515Z,0.80
2018-08-11T20:00:14.903Z,1.10
2018-08-11T20:02:42.609Z,1.10
2018-08-11T20:05:10.703Z,1.10
2018-08-11T20:07:37.987Z,1.10
2018-08-11T20:10:06.055Z,1.30
2018-08-11T20:12:33.746Z,1.10
2018-08-11T20:15:01.756Z,1.20
2018-08-11T20:17:30.102Z,1.13
2018-08-11T20:19:57.795Z,1.00
2018-08-11T20:22:24.963Z,1.20
2018-08-11T20:24:52.647Z,1.10
2018-08-11T20:27:19.932Z,1.00
2018-08-11T20:29:58.427Z,1.10
2018-08-11T20:32:25.656Z,1.40
2018-08-11T20:34:53.067Z,1.03
2018-08-11T20:37:20.401Z,1.10
2018-08-11T20:39:47.681Z,1.40
2018-08-11T20:42:15.801Z,1.20
2018-08-11T20:44:43.056Z,1.00
2018-08-11T20:47:10.390Z,1.23
2018-08-11T20:49:37.600Z,1.23
2018-08-11T20:52:04.845Z,1.07
2018-08-11T20:54:32.324Z,1.20
2018-08-11T20:56:59.759Z,1.30
2018-08-11T20:59:27.024Z,1.10
2018-08-11T21:01:54.393Z,1.00
2018-08-11T21:04:21.812Z,1.20
2018-08-11T21:06:49.354Z,1.30
2018-08-11T21:09:16.596Z,1.30
2018-08-11T21:11:56.308Z,1.23
2018-08-11T21:14:23.540Z,1.10
2018-08-11T21:16:51.063Z,1.43
2018-08-11T21:19:18.339Z,1.10
2018-08-11T21:21:45.850Z,1.37
2018-08-11T21:24:13.315Z,1.20
2018-08-11T21:26:40.986Z,1.20
2018-08-11T21:29:08.257Z,1.20
2018-08-11T21:31:35.557Z,1.10
2018-08-11T21:34:03.939Z,0.90
2018-08-11T21:36:31.638Z,1.17
2018-08-11T21:38:58.865Z,1.00
2018-08-11T21:41:26.072Z,1.17
2018-08-11T21:43:53.423Z,1.30
2018-08-11T21:46:33.209Z,1.27
2018-08-11T21:49:00.597Z,1.40
2018-08-11T21:51:27.867Z,1.30
2018-08-11T21:53:55.141Z,1.40
2018-08-11T21:56:22.476Z,1.33
2018-08-11T21:58:49.681Z,1.17
2018-08-11T22:01:16.849Z,1.10
2018-08-11T22:03:45.031Z,1.30
2018-08-11T22:06:13.429Z,1.30
2018-08-11T22:08:40.768Z,1.50
2018-08-11T22:11:08.039Z,1.23
2018-08-11T22:13:35.255Z,1.20
2018-08-11T22:16:03.269Z,1.20
2018-08-11T22:18:30.620Z,1.30
2018-08-11T22:20:57.937Z,1.33
2018-08-11T22:23:25.197Z,1.30
2018-08-11T22:25:52.433Z,1.23
2018-08-11T22:28:19.647Z,1.40
2018-08-11T22:30:46.911Z,1.20
2018-08-11T22:33:14.288Z,1.27
2018-08-11T22:35:41.492Z,1.23
2018-08-11T22:38:08.760Z,1.40
2018-08-11T22:40:35.963Z,1.33
2018-08-11T22:43:03.260Z,1.30
2018-08-11T22:45:30.532Z,1.20
2018-08-11T22:48:14.208Z,1.30
2018-08-11T22:50:41.401Z,1.40
2018-08-11T22:53:08.660Z,1.20
2018-08-11T22:55:36.117Z,1.23
2018-08-11T22:58:03.395Z,1.40
2018-08-11T23:00:30.622Z,1.57
2018-08-11T23:02:57.830Z,1.40
2018-08-11T23:05:25.143Z,0.90
2018-08-11T23:07:52.475Z,1.27
2018-08-11T23:10:19.704Z,1.13
2018-08-11T23:12:47.181Z,1.37
2018-08-11T23:15:15.620Z,1.30
2018-08-11T23:17:44.247Z,1.30
2018-08-11T23:20:11.580Z,1.20
2018-08-11T23:22:39.851Z,1.27
2018-08-11T23:25:07.854Z,1.63
2018-08-11T23:27:35.336Z,1.20
2018-08-11T23:30:03.149Z,1.40
2018-08-11T23:32:30.489Z,1.57
2018-08-11T23:34:57.813Z,1.53
2018-08-11T23:37:24.986Z,1.50
2018-08-11T23:39:54.390Z,1.70
2018-08-11T23:42:21.592Z,1.73
2018-08-11T23:44:48.875Z,1.40
2018-08-11T23:47:16.091Z,1.70
2018-08-11T23:49:43.243Z,1.60
2018-08-11T23:52:10.433Z,1.50
2018-08-11T23:54:37.723Z,1.60
2018-08-11T23:57:05.537Z,1.60
2018-08-11T23:59:32.676Z,1.60
